sensor_id;sensor_type;location;lat;lon;timestamp;temperature;humidity
53146;DHT22;39042;53.150;5.898;2023-05-24T00:00:52;6.80;99.90
53146;DHT22;39042;53.150;5.898;2023-05-24T00:03:20;6.80;99.90
53146;DHT22;39042;53.150;5.898;2023-05-24T00:05:46;6.80;99.90
53146;DHT22;39042;53.150;5.898;2023-05-24T00:08:11;6.80;99.90
53146;DHT22;39042;53.150;5.898;2023-05-24T00:10:41;6.80;99.90
53146;DHT22;39042;53.150;5.898;2023-05-24T00:13:07;6.80;99.90
53146;DHT22;39042;53.150;5.898;2023-05-24T00:15:32;6.80;99.90
53146;DHT22;39042;53.150;5.898;2023-05-24T00:17:59;6.80;99.90
53146;DHT22;39042;53.150;5.898;2023-05-24T00:20:25;6.80;99.90
53146;DHT22;39042;53.150;5.898;2023-05-24T00:22:51;6.80;99.90
53146;DHT22;39042;53.150;5.898;2023-05-24T00:25:17;6.80;99.90
53146;DHT22;39042;53.150;5.898;2023-05-24T00:27:42;6.80;99.90
53146;DHT22;39042;53.150;5.898;2023-05-24T00:30:08;6.80;99.90
53146;DHT22;39042;53.150;5.898;2023-05-24T00:32:34;6.90;99.90
53146;DHT22;39042;53.150;5.898;2023-05-24T00:35:02;6.90;99.90
53146;DHT22;39042;53.150;5.898;2023-05-24T00:37:28;6.90;99.90
53146;DHT22;39042;53.150;5.898;2023-05-24T00:39:54;6.90;99.90
53146;DHT22;39042;53.150;5.898;2023-05-24T00:42:20;6.90;99.90
53146;DHT22;39042;53.150;5.898;2023-05-24T00:44:45;6.90;99.90
53146;DHT22;39042;53.150;5.898;2023-05-24T00:47:12;6.90;99.90
53146;DHT22;39042;53.150;5.898;2023-05-24T00:49:38;7.00;99.90
53146;DHT22;39042;53.150;5.898;2023-05-24T00:52:05;7.00;99.90
53146;DHT22;39042;53.150;5.898;2023-05-24T00:54:31;7.10;99.90
53146;DHT22;39042;53.150;5.898;2023-05-24T00:56:57;7.20;99.90
53146;DHT22;39042;53.150;5.898;2023-05-24T00:59:25;7.30;99.90
53146;DHT22;39042;53.150;5.898;2023-05-24T01:01:51;7.40;99.90
53146;DHT22;39042;53.150;5.898;2023-05-24T01:04:17;7.40;99.90
53146;DHT22;39042;53.150;5.898;2023-05-24T01:12:27;7.70;99.90
53146;DHT22;39042;53.150;5.898;2023-05-24T01:14:58;7.70;99.90
53146;DHT22;39042;53.150;5.898;2023-05-24T01:20:33;7.70;99.90
53146;DHT22;39042;53.150;5.898;2023-05-24T01:28:33;7.60;99.90
53146;DHT22;39042;53.150;5.898;2023-05-24T01:31:00;7.60;99.90
53146;DHT22;39042;53.150;5.898;2023-05-24T01:33:26;7.60;99.90
53146;DHT22;39042;53.150;5.898;2023-05-24T01:35:52;7.60;99.90
53146;DHT22;39042;53.150;5.898;2023-05-24T01:38:18;7.60;99.90
53146;DHT22;39042;53.150;5.898;2023-05-24T01:40:46;7.60;99.90
53146;DHT22;39042;53.150;5.898;2023-05-24T01:43:30;7.60;99.90
53146;DHT22;39042;53.150;5.898;2023-05-24T01:48:58;7.60;99.90
53146;DHT22;39042;53.150;5.898;2023-05-24T01:51:33;7.60;99.90
53146;DHT22;39042;53.150;5.898;2023-05-24T01:54:03;7.60;99.90
53146;DHT22;39042;53.150;5.898;2023-05-24T01:56:29;7.60;99.90
53146;DHT22;39042;53.150;5.898;2023-05-24T01:58:58;7.60;99.90
53146;DHT22;39042;53.150;5.898;2023-05-24T02:01:25;7.60;99.90
53146;DHT22;39042;53.150;5.898;2023-05-24T02:03:52;7.50;99.90
53146;DHT22;39042;53.150;5.898;2023-05-24T02:06:18;7.50;99.90
53146;DHT22;39042;53.150;5.898;2023-05-24T02:08:44;7.50;99.90
53146;DHT22;39042;53.150;5.898;2023-05-24T02:11:11;7.50;99.90
53146;DHT22;39042;53.150;5.898;2023-05-24T02:13:37;7.40;99.90
53146;DHT22;39042;53.150;5.898;2023-05-24T02:16:03;7.40;99.90
53146;DHT22;39042;53.150;5.898;2023-05-24T02:18:29;7.40;99.90
53146;DHT22;39042;53.150;5.898;2023-05-24T02:21:00;7.40;99.90
53146;DHT22;39042;53.150;5.898;2023-05-24T02:23:27;7.30;99.90
53146;DHT22;39042;53.150;5.898;2023-05-24T02:25:53;7.30;99.90
53146;DHT22;39042;53.150;5.898;2023-05-24T02:28:19;7.20;99.90
53146;DHT22;39042;53.150;5.898;2023-05-24T02:30:45;7.20;99.90
53146;DHT22;39042;53.150;5.898;2023-05-24T02:33:12;7.20;99.90
53146;DHT22;39042;53.150;5.898;2023-05-24T02:35:38;7.20;99.90
53146;DHT22;39042;53.150;5.898;2023-05-24T02:38:06;7.20;99.90
53146;DHT22;39042;53.150;5.898;2023-05-24T02:40:32;7.20;99.90
53146;DHT22;39042;53.150;5.898;2023-05-24T02:42:58;7.20;99.90
53146;DHT22;39042;53.150;5.898;2023-05-24T02:45:23;7.20;99.90
53146;DHT22;39042;53.150;5.898;2023-05-24T02:47:49;7.20;99.90
53146;DHT22;39042;53.150;5.898;2023-05-24T02:50:15;7.10;99.90
53146;DHT22;39042;53.150;5.898;2023-05-24T02:52:41;7.10;99.90
53146;DHT22;39042;53.150;5.898;2023-05-24T02:55:07;7.10;99.90
53146;DHT22;39042;53.150;5.898;2023-05-24T02:57:34;7.10;99.90
53146;DHT22;39042;53.150;5.898;2023-05-24T03:00:00;7.10;99.90
53146;DHT22;39042;53.150;5.898;2023-05-24T03:02:25;7.00;99.90
53146;DHT22;39042;53.150;5.898;2023-05-24T03:04:54;7.00;99.90
53146;DHT22;39042;53.150;5.898;2023-05-24T03:07:20;7.00;99.90
53146;DHT22;39042;53.150;5.898;2023-05-24T03:09:48;7.00;99.90
53146;DHT22;39042;53.150;5.898;2023-05-24T03:12:14;7.00;99.90
53146;DHT22;39042;53.150;5.898;2023-05-24T03:14:40;7.00;99.90
53146;DHT22;39042;53.150;5.898;2023-05-24T03:17:06;7.00;99.90
53146;DHT22;39042;53.150;5.898;2023-05-24T03:19:33;6.90;99.90
53146;DHT22;39042;53.150;5.898;2023-05-24T03:21:59;6.90;99.90
53146;DHT22;39042;53.150;5.898;2023-05-24T03:24:25;6.90;99.90
53146;DHT22;39042;53.150;5.898;2023-05-24T03:26:51;6.90;99.90
53146;DHT22;39042;53.150;5.898;2023-05-24T03:29:17;7.00;99.90
53146;DHT22;39042;53.150;5.898;2023-05-24T03:31:44;7.00;99.90
53146;DHT22;39042;53.150;5.898;2023-05-24T03:34:10;7.00;99.90
53146;DHT22;39042;53.150;5.898;2023-05-24T03:36:37;7.00;99.90
53146;DHT22;39042;53.150;5.898;2023-05-24T03:39:03;7.10;99.90
53146;DHT22;39042;53.150;5.898;2023-05-24T03:41:35;7.10;99.90
53146;DHT22;39042;53.150;5.898;2023-05-24T03:44:01;7.10;99.90
53146;DHT22;39042;53.150;5.898;2023-05-24T03:46:29;7.10;99.90
53146;DHT22;39042;53.150;5.898;2023-05-24T03:48:54;7.10;99.90
53146;DHT22;39042;53.150;5.898;2023-05-24T03:51:20;7.10;99.90
53146;DHT22;39042;53.150;5.898;2023-05-24T03:53:57;7.10;99.90
53146;DHT22;39042;53.150;5.898;2023-05-24T03:56:25;7.10;99.90
53146;DHT22;39042;53.150;5.898;2023-05-24T03:58:51;7.10;99.90
53146;DHT22;39042;53.150;5.898;2023-05-24T04:01:18;7.10;99.90
53146;DHT22;39042;53.150;5.898;2023-05-24T04:03:45;7.20;99.90
53146;DHT22;39042;53.150;5.898;2023-05-24T04:06:11;7.20;99.90
53146;DHT22;39042;53.150;5.898;2023-05-24T04:08:38;7.30;99.90
53146;DHT22;39042;53.150;5.898;2023-05-24T04:11:03;7.30;99.90
53146;DHT22;39042;53.150;5.898;2023-05-24T04:13:30;7.40;99.90
53146;DHT22;39042;53.150;5.898;2023-05-24T04:15:55;7.40;99.90
53146;DHT22;39042;53.150;5.898;2023-05-24T04:18:21;7.50;99.90
53146;DHT22;39042;53.150;5.898;2023-05-24T04:20:47;7.50;99.90
53146;DHT22;39042;53.150;5.898;2023-05-24T04:23:13;7.60;99.90
53146;DHT22;39042;53.150;5.898;2023-05-24T04:25:39;7.70;99.90
53146;DHT22;39042;53.150;5.898;2023-05-24T04:28:05;7.80;99.90
53146;DHT22;39042;53.150;5.898;2023-05-24T04:30:31;7.80;99.90
53146;DHT22;39042;53.150;5.898;2023-05-24T04:32:57;7.90;99.90
53146;DHT22;39042;53.150;5.898;2023-05-24T04:35:24;8.00;99.90
53146;DHT22;39042;53.150;5.898;2023-05-24T04:37:51;8.10;99.90
53146;DHT22;39042;53.150;5.898;2023-05-24T04:40:18;8.30;99.90
53146;DHT22;39042;53.150;5.898;2023-05-24T04:42:47;8.40;99.90
53146;DHT22;39042;53.150;5.898;2023-05-24T04:45:14;8.60;99.90
53146;DHT22;39042;53.150;5.898;2023-05-24T04:47:40;8.70;99.90
53146;DHT22;39042;53.150;5.898;2023-05-24T04:50:06;8.90;99.90
53146;DHT22;39042;53.150;5.898;2023-05-24T04:52:32;9.00;99.90
53146;DHT22;39042;53.150;5.898;2023-05-24T04:55:02;9.10;99.90
53146;DHT22;39042;53.150;5.898;2023-05-24T04:57:28;9.30;99.90
53146;DHT22;39042;53.150;5.898;2023-05-24T04:59:54;9.40;99.90
53146;DHT22;39042;53.150;5.898;2023-05-24T05:02:20;9.50;99.90
53146;DHT22;39042;53.150;5.898;2023-05-24T05:04:47;9.60;99.90
53146;DHT22;39042;53.150;5.898;2023-05-24T05:07:12;9.70;99.90
53146;DHT22;39042;53.150;5.898;2023-05-24T05:09:38;9.80;99.90
53146;DHT22;39042;53.150;5.898;2023-05-24T05:12:04;9.80;99.90
53146;DHT22;39042;53.150;5.898;2023-05-24T05:14:31;9.90;99.90
53146;DHT22;39042;53.150;5.898;2023-05-24T05:16:57;10.00;99.90
53146;DHT22;39042;53.150;5.898;2023-05-24T05:19:23;10.10;99.90
53146;DHT22;39042;53.150;5.898;2023-05-24T05:21:49;10.10;99.90
53146;DHT22;39042;53.150;5.898;2023-05-24T05:24:15;10.20;99.90
53146;DHT22;39042;53.150;5.898;2023-05-24T05:26:41;10.30;99.90
53146;DHT22;39042;53.150;5.898;2023-05-24T05:29:07;10.40;99.90
53146;DHT22;39042;53.150;5.898;2023-05-24T05:31:33;10.40;99.90
53146;DHT22;39042;53.150;5.898;2023-05-24T05:33:59;10.50;99.90
53146;DHT22;39042;53.150;5.898;2023-05-24T05:36:25;10.50;99.90
53146;DHT22;39042;53.150;5.898;2023-05-24T05:38:50;10.60;99.90
53146;DHT22;39042;53.150;5.898;2023-05-24T05:41:17;10.70;99.90
53146;DHT22;39042;53.150;5.898;2023-05-24T05:43:42;10.70;99.90
53146;DHT22;39042;53.150;5.898;2023-05-24T05:46:08;10.80;99.90
53146;DHT22;39042;53.150;5.898;2023-05-24T05:48:35;10.80;99.90
53146;DHT22;39042;53.150;5.898;2023-05-24T05:51:01;10.90;99.90
53146;DHT22;39042;53.150;5.898;2023-05-24T05:53:27;11.00;99.90
53146;DHT22;39042;53.150;5.898;2023-05-24T05:55:52;11.20;99.90
53146;DHT22;39042;53.150;5.898;2023-05-24T05:58:18;11.30;99.90
53146;DHT22;39042;53.150;5.898;2023-05-24T06:00:44;11.30;99.90
53146;DHT22;39042;53.150;5.898;2023-05-24T06:03:10;11.40;99.90
53146;DHT22;39042;53.150;5.898;2023-05-24T06:05:36;11.40;99.90
53146;DHT22;39042;53.150;5.898;2023-05-24T06:08:02;11.40;99.90
53146;DHT22;39042;53.150;5.898;2023-05-24T06:10:28;11.50;99.90
53146;DHT22;39042;53.150;5.898;2023-05-24T06:12:53;11.40;99.90
53146;DHT22;39042;53.150;5.898;2023-05-24T06:15:19;11.50;99.90
53146;DHT22;39042;53.150;5.898;2023-05-24T06:17:48;11.50;99.90
53146;DHT22;39042;53.150;5.898;2023-05-24T06:20:14;11.50;99.90
53146;DHT22;39042;53.150;5.898;2023-05-24T06:22:41;11.50;99.90
53146;DHT22;39042;53.150;5.898;2023-05-24T06:25:07;11.50;99.90
53146;DHT22;39042;53.150;5.898;2023-05-24T06:27:33;11.50;99.90
53146;DHT22;39042;53.150;5.898;2023-05-24T06:29:59;11.50;99.90
53146;DHT22;39042;53.150;5.898;2023-05-24T06:32:25;11.60;99.90
53146;DHT22;39042;53.150;5.898;2023-05-24T06:34:51;11.60;99.90
53146;DHT22;39042;53.150;5.898;2023-05-24T06:37:17;11.60;99.90
53146;DHT22;39042;53.150;5.898;2023-05-24T06:39:43;11.70;99.90
53146;DHT22;39042;53.150;5.898;2023-05-24T06:42:09;11.80;99.90
53146;DHT22;39042;53.150;5.898;2023-05-24T06:44:37;11.90;99.90
53146;DHT22;39042;53.150;5.898;2023-05-24T06:47:03;12.00;99.90
53146;DHT22;39042;53.150;5.898;2023-05-24T06:49:30;12.10;99.90
53146;DHT22;39042;53.150;5.898;2023-05-24T06:51:56;12.20;99.90
53146;DHT22;39042;53.150;5.898;2023-05-24T06:54:21;12.30;99.90
53146;DHT22;39042;53.150;5.898;2023-05-24T06:56:47;12.30;99.90
53146;DHT22;39042;53.150;5.898;2023-05-24T06:59:13;12.30;99.90
53146;DHT22;39042;53.150;5.898;2023-05-24T07:01:39;12.30;99.90
53146;DHT22;39042;53.150;5.898;2023-05-24T07:04:08;12.30;99.90
53146;DHT22;39042;53.150;5.898;2023-05-24T07:06:34;12.50;99.90
53146;DHT22;39042;53.150;5.898;2023-05-24T07:09:00;12.60;99.90
53146;DHT22;39042;53.150;5.898;2023-05-24T07:11:29;12.80;99.90
53146;DHT22;39042;53.150;5.898;2023-05-24T07:13:58;12.80;99.90
53146;DHT22;39042;53.150;5.898;2023-05-24T07:16:24;12.90;99.90
53146;DHT22;39042;53.150;5.898;2023-05-24T07:18:50;12.90;99.90
53146;DHT22;39042;53.150;5.898;2023-05-24T07:21:16;12.90;99.90
53146;DHT22;39042;53.150;5.898;2023-05-24T07:23:42;12.90;99.90
53146;DHT22;39042;53.150;5.898;2023-05-24T07:26:07;12.90;99.90
53146;DHT22;39042;53.150;5.898;2023-05-24T07:28:37;12.90;99.90
53146;DHT22;39042;53.150;5.898;2023-05-24T07:31:04;13.00;99.90
53146;DHT22;39042;53.150;5.898;2023-05-24T07:33:35;13.20;99.90
53146;DHT22;39042;53.150;5.898;2023-05-24T07:36:05;13.30;99.90
53146;DHT22;39042;53.150;5.898;2023-05-24T07:38:31;13.40;99.90
53146;DHT22;39042;53.150;5.898;2023-05-24T07:41:01;13.60;99.90
53146;DHT22;39042;53.150;5.898;2023-05-24T07:43:30;13.90;99.90
53146;DHT22;39042;53.150;5.898;2023-05-24T07:45:56;14.00;99.90
53146;DHT22;39042;53.150;5.898;2023-05-24T07:48:23;14.10;99.90
53146;DHT22;39042;53.150;5.898;2023-05-24T07:50:49;14.10;99.90
53146;DHT22;39042;53.150;5.898;2023-05-24T07:53:17;14.10;99.90
53146;DHT22;39042;53.150;5.898;2023-05-24T07:55:44;14.10;99.90
53146;DHT22;39042;53.150;5.898;2023-05-24T07:58:10;14.10;99.90
53146;DHT22;39042;53.150;5.898;2023-05-24T08:00:36;14.10;99.90
53146;DHT22;39042;53.150;5.898;2023-05-24T08:03:03;14.10;99.90
53146;DHT22;39042;53.150;5.898;2023-05-24T08:05:30;14.00;99.90
53146;DHT22;39042;53.150;5.898;2023-05-24T08:07:56;14.10;99.90
53146;DHT22;39042;53.150;5.898;2023-05-24T08:10:27;14.20;99.90
53146;DHT22;39042;53.150;5.898;2023-05-24T08:12:53;14.30;99.90
53146;DHT22;39042;53.150;5.898;2023-05-24T08:15:23;14.20;99.90
53146;DHT22;39042;53.150;5.898;2023-05-24T08:17:49;14.20;99.90
53146;DHT22;39042;53.150;5.898;2023-05-24T08:20:15;14.20;99.90
53146;DHT22;39042;53.150;5.898;2023-05-24T08:22:42;14.30;99.90
53146;DHT22;39042;53.150;5.898;2023-05-24T08:25:13;14.30;99.90
53146;DHT22;39042;53.150;5.898;2023-05-24T08:27:42;14.40;99.90
53146;DHT22;39042;53.150;5.898;2023-05-24T08:30:08;14.40;99.90
53146;DHT22;39042;53.150;5.898;2023-05-24T08:32:35;14.30;99.90
53146;DHT22;39042;53.150;5.898;2023-05-24T08:35:01;14.20;99.90
53146;DHT22;39042;53.150;5.898;2023-05-24T08:37:27;14.30;99.90
53146;DHT22;39042;53.150;5.898;2023-05-24T08:39:54;14.20;99.90
53146;DHT22;39042;53.150;5.898;2023-05-24T08:42:21;14.30;99.90
53146;DHT22;39042;53.150;5.898;2023-05-24T08:44:52;14.30;99.90
53146;DHT22;39042;53.150;5.898;2023-05-24T08:47:23;14.30;99.90
53146;DHT22;39042;53.150;5.898;2023-05-24T08:49:50;14.30;99.90
53146;DHT22;39042;53.150;5.898;2023-05-24T08:52:17;14.40;99.90
53146;DHT22;39042;53.150;5.898;2023-05-24T08:54:44;14.20;99.90
53146;DHT22;39042;53.150;5.898;2023-05-24T08:57:11;14.10;99.90
53146;DHT22;39042;53.150;5.898;2023-05-24T08:59:39;14.10;99.90
53146;DHT22;39042;53.150;5.898;2023-05-24T09:02:08;14.10;99.90
53146;DHT22;39042;53.150;5.898;2023-05-24T09:04:38;14.20;99.90
53146;DHT22;39042;53.150;5.898;2023-05-24T09:07:06;14.20;99.90
53146;DHT22;39042;53.150;5.898;2023-05-24T09:09:33;14.20;99.90
53146;DHT22;39042;53.150;5.898;2023-05-24T09:12:03;14.20;99.90
53146;DHT22;39042;53.150;5.898;2023-05-24T09:14:30;14.20;99.90
53146;DHT22;39042;53.150;5.898;2023-05-24T09:16:57;14.20;99.90
53146;DHT22;39042;53.150;5.898;2023-05-24T09:19:23;14.30;99.90
53146;DHT22;39042;53.150;5.898;2023-05-24T09:21:49;14.20;99.90
53146;DHT22;39042;53.150;5.898;2023-05-24T09:24:15;14.10;99.90
53146;DHT22;39042;53.150;5.898;2023-05-24T09:26:41;14.20;99.90
53146;DHT22;39042;53.150;5.898;2023-05-24T09:29:07;14.10;99.90
53146;DHT22;39042;53.150;5.898;2023-05-24T09:31:34;14.10;99.90
53146;DHT22;39042;53.150;5.898;2023-05-24T09:34:00;14.10;99.90
53146;DHT22;39042;53.150;5.898;2023-05-24T09:36:27;14.20;99.90
53146;DHT22;39042;53.150;5.898;2023-05-24T09:39:17;14.20;99.90
53146;DHT22;39042;53.150;5.898;2023-05-24T09:41:51;14.30;99.90
53146;DHT22;39042;53.150;5.898;2023-05-24T09:44:26;14.40;99.90
53146;DHT22;39042;53.150;5.898;2023-05-24T09:47:02;14.50;99.90
53146;DHT22;39042;53.150;5.898;2023-05-24T09:49:32;14.70;99.90
53146;DHT22;39042;53.150;5.898;2023-05-24T09:51:57;14.80;99.90
53146;DHT22;39042;53.150;5.898;2023-05-24T09:54:23;14.90;99.90
53146;DHT22;39042;53.150;5.898;2023-05-24T09:56:54;15.00;99.90
53146;DHT22;39042;53.150;5.898;2023-05-24T09:59:21;15.10;99.90
53146;DHT22;39042;53.150;5.898;2023-05-24T10:01:47;15.20;99.90
53146;DHT22;39042;53.150;5.898;2023-05-24T10:04:31;15.20;99.90
53146;DHT22;39042;53.150;5.898;2023-05-24T10:06:59;15.10;99.90
53146;DHT22;39042;53.150;5.898;2023-05-24T10:09:28;15.00;99.90
53146;DHT22;39042;53.150;5.898;2023-05-24T10:12:03;15.00;99.90
53146;DHT22;39042;53.150;5.898;2023-05-24T10:17:35;15.00;99.90
53146;DHT22;39042;53.150;5.898;2023-05-24T10:20:01;15.00;99.90
53146;DHT22;39042;53.150;5.898;2023-05-24T10:22:27;15.00;99.90
53146;DHT22;39042;53.150;5.898;2023-05-24T10:24:55;14.90;99.90
53146;DHT22;39042;53.150;5.898;2023-05-24T10:27:26;14.90;99.90
53146;DHT22;39042;53.150;5.898;2023-05-24T10:30:07;14.80;99.90
53146;DHT22;39042;53.150;5.898;2023-05-24T10:32:37;14.70;99.90
53146;DHT22;39042;53.150;5.898;2023-05-24T10:35:05;14.70;99.90
53146;DHT22;39042;53.150;5.898;2023-05-24T10:37:31;14.80;99.90
53146;DHT22;39042;53.150;5.898;2023-05-24T10:39:59;14.80;99.90
53146;DHT22;39042;53.150;5.898;2023-05-24T10:42:25;14.80;99.90
53146;DHT22;39042;53.150;5.898;2023-05-24T10:44:51;14.90;99.90
53146;DHT22;39042;53.150;5.898;2023-05-24T10:47:20;15.10;99.90
53146;DHT22;39042;53.150;5.898;2023-05-24T10:49:51;15.30;99.90
53146;DHT22;39042;53.150;5.898;2023-05-24T10:52:18;15.40;99.90
53146;DHT22;39042;53.150;5.898;2023-05-24T10:55:07;15.40;99.90
53146;DHT22;39042;53.150;5.898;2023-05-24T10:57:34;15.60;99.90
53146;DHT22;39042;53.150;5.898;2023-05-24T11:02:49;15.70;99.90
53146;DHT22;39042;53.150;5.898;2023-05-24T11:05:15;15.60;99.90
53146;DHT22;39042;53.150;5.898;2023-05-24T11:07:41;15.50;99.90
53146;DHT22;39042;53.150;5.898;2023-05-24T11:10:14;15.40;99.90
53146;DHT22;39042;53.150;5.898;2023-05-24T11:12:41;15.50;99.90
53146;DHT22;39042;53.150;5.898;2023-05-24T11:15:10;15.40;99.90
53146;DHT22;39042;53.150;5.898;2023-05-24T11:20:43;15.60;99.90
53146;DHT22;39042;53.150;5.898;2023-05-24T11:23:13;15.60;99.90
53146;DHT22;39042;53.150;5.898;2023-05-24T11:25:45;15.80;99.90
53146;DHT22;39042;53.150;5.898;2023-05-24T11:28:14;15.80;99.90
53146;DHT22;39042;53.150;5.898;2023-05-24T11:30:41;15.80;99.90
53146;DHT22;39042;53.150;5.898;2023-05-24T11:35:40;15.90;99.90
53146;DHT22;39042;53.150;5.898;2023-05-24T11:38:14;15.80;99.90
53146;DHT22;39042;53.150;5.898;2023-05-24T11:40:44;15.80;99.90
53146;DHT22;39042;53.150;5.898;2023-05-24T11:43:16;16.00;99.90
53146;DHT22;39042;53.150;5.898;2023-05-24T11:45:47;16.00;99.90
53146;DHT22;39042;53.150;5.898;2023-05-24T11:48:14;16.00;99.90
53146;DHT22;39042;53.150;5.898;2023-05-24T11:50:40;16.00;99.90
53146;DHT22;39042;53.150;5.898;2023-05-24T11:53:13;15.90;99.90
53146;DHT22;39042;53.150;5.898;2023-05-24T11:55:40;15.90;99.90
53146;DHT22;39042;53.150;5.898;2023-05-24T11:58:23;16.00;99.90
53146;DHT22;39042;53.150;5.898;2023-05-24T12:00:50;16.10;99.90
53146;DHT22;39042;53.150;5.898;2023-05-24T12:03:16;16.10;99.90
53146;DHT22;39042;53.150;5.898;2023-05-24T12:05:42;16.20;99.90
53146;DHT22;39042;53.150;5.898;2023-05-24T12:08:10;16.20;99.90
53146;DHT22;39042;53.150;5.898;2023-05-24T12:10:38;16.30;99.90
53146;DHT22;39042;53.150;5.898;2023-05-24T12:13:06;16.40;99.90
53146;DHT22;39042;53.150;5.898;2023-05-24T12:15:42;16.40;99.90
53146;DHT22;39042;53.150;5.898;2023-05-24T12:18:19;16.50;99.90
53146;DHT22;39042;53.150;5.898;2023-05-24T12:20:48;16.50;99.90
53146;DHT22;39042;53.150;5.898;2023-05-24T12:23:17;16.60;99.90
53146;DHT22;39042;53.150;5.898;2023-05-24T12:25:43;16.60;99.90
53146;DHT22;39042;53.150;5.898;2023-05-24T12:28:09;16.60;99.90
53146;DHT22;39042;53.150;5.898;2023-05-24T12:30:36;16.60;99.90
53146;DHT22;39042;53.150;5.898;2023-05-24T12:33:10;16.60;99.90
53146;DHT22;39042;53.150;5.898;2023-05-24T12:35:39;16.60;99.90
53146;DHT22;39042;53.150;5.898;2023-05-24T12:38:10;16.50;99.90
53146;DHT22;39042;53.150;5.898;2023-05-24T12:40:36;16.60;99.90
53146;DHT22;39042;53.150;5.898;2023-05-24T12:43:03;16.60;99.90
53146;DHT22;39042;53.150;5.898;2023-05-24T12:45:30;16.70;99.90
53146;DHT22;39042;53.150;5.898;2023-05-24T12:47:58;16.80;99.90
53146;DHT22;39042;53.150;5.898;2023-05-24T12:50:25;16.80;99.90
53146;DHT22;39042;53.150;5.898;2023-05-24T12:52:52;16.70;99.90
53146;DHT22;39042;53.150;5.898;2023-05-24T12:55:26;16.60;99.90
53146;DHT22;39042;53.150;5.898;2023-05-24T12:57:53;16.60;99.90
53146;DHT22;39042;53.150;5.898;2023-05-24T13:00:25;16.60;99.90
53146;DHT22;39042;53.150;5.898;2023-05-24T13:02:54;16.60;99.90
53146;DHT22;39042;53.150;5.898;2023-05-24T13:05:24;16.60;99.90
53146;DHT22;39042;53.150;5.898;2023-05-24T13:07:51;16.60;99.90
53146;DHT22;39042;53.150;5.898;2023-05-24T13:10:18;16.60;99.90
53146;DHT22;39042;53.150;5.898;2023-05-24T13:12:45;16.50;99.90
53146;DHT22;39042;53.150;5.898;2023-05-24T13:15:11;16.40;99.90
53146;DHT22;39042;53.150;5.898;2023-05-24T13:17:37;16.50;99.90
53146;DHT22;39042;53.150;5.898;2023-05-24T13:20:05;16.60;99.90
53146;DHT22;39042;53.150;5.898;2023-05-24T13:22:35;16.60;99.90
53146;DHT22;39042;53.150;5.898;2023-05-24T13:25:03;16.70;99.90
53146;DHT22;39042;53.150;5.898;2023-05-24T13:27:29;16.60;99.90
53146;DHT22;39042;53.150;5.898;2023-05-24T13:29:55;16.70;99.90
53146;DHT22;39042;53.150;5.898;2023-05-24T13:32:21;16.80;99.90
53146;DHT22;39042;53.150;5.898;2023-05-24T13:34:47;17.00;99.90
53146;DHT22;39042;53.150;5.898;2023-05-24T13:37:14;17.00;99.90
53146;DHT22;39042;53.150;5.898;2023-05-24T13:39:41;16.90;99.90
53146;DHT22;39042;53.150;5.898;2023-05-24T13:42:07;16.90;99.90
53146;DHT22;39042;53.150;5.898;2023-05-24T13:44:34;16.80;99.90
53146;DHT22;39042;53.150;5.898;2023-05-24T13:47:00;16.80;99.90
53146;DHT22;39042;53.150;5.898;2023-05-24T13:49:27;16.80;99.90
53146;DHT22;39042;53.150;5.898;2023-05-24T13:51:53;16.90;99.90
53146;DHT22;39042;53.150;5.898;2023-05-24T13:54:19;17.00;99.90
53146;DHT22;39042;53.150;5.898;2023-05-24T13:56:46;17.00;99.90
53146;DHT22;39042;53.150;5.898;2023-05-24T13:59:14;16.90;99.90
53146;DHT22;39042;53.150;5.898;2023-05-24T14:01:40;16.80;99.90
53146;DHT22;39042;53.150;5.898;2023-05-24T14:04:06;16.80;99.90
53146;DHT22;39042;53.150;5.898;2023-05-24T14:06:33;16.70;99.90
53146;DHT22;39042;53.150;5.898;2023-05-24T14:08:59;16.70;99.90
53146;DHT22;39042;53.150;5.898;2023-05-24T14:11:26;16.70;99.90
53146;DHT22;39042;53.150;5.898;2023-05-24T14:13:54;16.80;99.90
53146;DHT22;39042;53.150;5.898;2023-05-24T14:16:20;16.90;99.90
53146;DHT22;39042;53.150;5.898;2023-05-24T14:18:46;16.90;99.90
53146;DHT22;39042;53.150;5.898;2023-05-24T14:21:13;16.80;99.90
53146;DHT22;39042;53.150;5.898;2023-05-24T14:23:39;16.80;99.90
53146;DHT22;39042;53.150;5.898;2023-05-24T14:26:06;16.80;99.90
53146;DHT22;39042;53.150;5.898;2023-05-24T14:28:32;16.70;99.90
53146;DHT22;39042;53.150;5.898;2023-05-24T14:30:57;16.70;99.90
53146;DHT22;39042;53.150;5.898;2023-05-24T14:33:23;16.70;99.90
53146;DHT22;39042;53.150;5.898;2023-05-24T14:35:50;16.70;99.90
53146;DHT22;39042;53.150;5.898;2023-05-24T14:38:16;16.70;99.90
53146;DHT22;39042;53.150;5.898;2023-05-24T14:40:42;16.60;99.90
53146;DHT22;39042;53.150;5.898;2023-05-24T14:43:12;16.70;99.90
53146;DHT22;39042;53.150;5.898;2023-05-24T14:45:38;16.80;99.90
53146;DHT22;39042;53.150;5.898;2023-05-24T14:48:06;17.00;99.90
53146;DHT22;39042;53.150;5.898;2023-05-24T14:50:35;17.00;99.90
53146;DHT22;39042;53.150;5.898;2023-05-24T14:53:02;16.80;99.90
53146;DHT22;39042;53.150;5.898;2023-05-24T14:55:35;16.70;99.90
53146;DHT22;39042;53.150;5.898;2023-05-24T14:58:02;16.60;99.90
53146;DHT22;39042;53.150;5.898;2023-05-24T15:00:30;16.50;99.90
53146;DHT22;39042;53.150;5.898;2023-05-24T15:02:57;16.50;99.90
53146;DHT22;39042;53.150;5.898;2023-05-24T15:05:23;16.50;99.90
53146;DHT22;39042;53.150;5.898;2023-05-24T15:07:49;16.60;99.90
53146;DHT22;39042;53.150;5.898;2023-05-24T15:10:14;16.60;99.90
53146;DHT22;39042;53.150;5.898;2023-05-24T15:12:41;16.60;99.90
53146;DHT22;39042;53.150;5.898;2023-05-24T15:15:07;16.70;99.90
53146;DHT22;39042;53.150;5.898;2023-05-24T15:17:35;16.70;99.90
53146;DHT22;39042;53.150;5.898;2023-05-24T15:20:01;16.60;99.90
53146;DHT22;39042;53.150;5.898;2023-05-24T15:22:27;16.60;99.90
53146;DHT22;39042;53.150;5.898;2023-05-24T15:24:53;16.60;99.90
53146;DHT22;39042;53.150;5.898;2023-05-24T15:27:19;16.50;99.90
53146;DHT22;39042;53.150;5.898;2023-05-24T15:29:45;16.50;99.90
53146;DHT22;39042;53.150;5.898;2023-05-24T15:32:11;16.40;99.90
53146;DHT22;39042;53.150;5.898;2023-05-24T15:34:37;16.20;99.90
53146;DHT22;39042;53.150;5.898;2023-05-24T15:37:06;16.10;99.90
53146;DHT22;39042;53.150;5.898;2023-05-24T15:39:32;15.90;99.90
53146;DHT22;39042;53.150;5.898;2023-05-24T15:41:59;15.90;99.90
53146;DHT22;39042;53.150;5.898;2023-05-24T15:44:27;15.80;99.90
53146;DHT22;39042;53.150;5.898;2023-05-24T15:46:58;15.70;99.90
53146;DHT22;39042;53.150;5.898;2023-05-24T15:49:24;15.70;99.90
53146;DHT22;39042;53.150;5.898;2023-05-24T15:51:50;15.60;99.90
53146;DHT22;39042;53.150;5.898;2023-05-24T15:54:16;15.50;99.90
53146;DHT22;39042;53.150;5.898;2023-05-24T15:56:42;15.50;99.90
53146;DHT22;39042;53.150;5.898;2023-05-24T15:59:08;15.50;99.90
53146;DHT22;39042;53.150;5.898;2023-05-24T16:01:34;15.40;99.90
53146;DHT22;39042;53.150;5.898;2023-05-24T16:04:00;15.30;99.90